Agua Branca, Brazil
Current Conditions -  °F | °C
As of 8:00 AM on Monday 22 Dec 2014 (Local Time) from SBJU Reporting Station
Few Clouds Few Clouds  
Wind Chill: 82°   Ceiling: Unl
Heat Index: 87°   Visibility: 6mi
Dew Point: 72°   Wind: 6mph
Humidity: 70%   Direction: 90°E
Pressure: 30.03"   Gusts: NA
Location:  7.51°S, 37.64°W
Report Text: SBJU 221100Z 09005KT 9999 FEW020 28/22 Q1017
Loading
Personal Weather Stations






























Interactive Weather Map New forecast layout! Learn more

10-Day Weather Forecast

Advertisements
Track Severe Weather on mobile